Time;durP1;ratioP1;P1;durP2;ratioP2;P2;SDS_P1;SDS_P2;PMS_P1;PMS_P2;Temp;Humidity;BMP_temperature;BMP_pressure;BME280_temperature;BME280_humidity;BME280_pressure;Samples;Min_cycle;Max_cycle;Signal;HPM_P1;HPM_P2
2022/10/05 00:02:18;;;;;;;632.87;179.50;;;9.90;99.90;;;;;;4938334;29;20250;-85
2022/10/05 00:04:45;;;;;;;630.37;178.50;;;9.90;99.90;;;;;;4938943;29;20704;-86
2022/10/05 00:07:15;;;;;;;630.23;174.83;;;9.90;99.90;;;;;;4938464;29;20202;-86
2022/10/05 00:09:42;;;;;;;626.37;169.73;;;9.90;99.90;;;;;;4938413;29;20727;-86
2022/10/05 00:12:18;;;;;;;622.80;172.03;;;9.90;99.90;;;;;;4938351;29;20263;-86
2022/10/05 00:14:47;;;;;;;623.50;172.43;;;9.90;99.90;;;;;;4938482;29;20259;-86
2022/10/05 00:17:17;;;;;;;624.83;174.77;;;9.90;99.90;;;;;;4937860;29;20560;-88
2022/10/05 00:19:50;;;;;;;624.17;170.40;;;9.90;99.90;;;;;;4938045;29;20303;-87
2022/10/05 00:22:20;;;;;;;627.80;173.27;;;9.90;99.90;;;;;;4938684;29;20206;-87
2022/10/05 00:24:50;;;;;;;623.60;168.10;;;9.90;99.90;;;;;;4938420;29;20200;-86
2022/10/05 00:27:21;;;;;;;623.80;169.07;;;9.90;99.90;;;;;;4937815;29;20544;-85
2022/10/05 00:29:50;;;;;;;621.70;166.83;;;9.90;1.00;;;;;;4937890;29;20615;-86
2022/10/05 00:32:18;;;;;;;625.07;171.43;;;9.90;1.00;;;;;;4937794;29;20666;-85
2022/10/05 00:34:45;;;;;;;623.27;170.90;;;9.90;1.00;;;;;;4938458;29;20223;-86
2022/10/05 00:37:14;;;;;;;626.40;172.27;;;9.90;99.90;;;;;;4937561;29;20226;-86
2022/10/05 00:39:42;;;;;;;615.53;165.77;;;9.90;99.90;;;;;;4938079;29;20604;-85
2022/10/05 00:42:31;;;;;;;620.67;167.60;;;9.80;1.00;;;;;;4937771;29;20678;-87
2022/10/05 00:45:04;;;;;;;624.50;164.83;;;9.80;1.00;;;;;;4936345;29;20193;-87
2022/10/05 00:47:38;;;;;;;615.87;165.10;;;9.80;99.90;;;;;;4937833;29;20249;-85
2022/10/05 00:50:26;;;;;;;620.93;162.63;;;9.80;99.90;;;;;;4938042;29;20665;-85
2022/10/05 00:53:01;;;;;;;633.00;173.00;;;9.80;1.00;;;;;;4937795;29;20243;-85
2022/10/05 00:55:40;;;;;;;629.13;158.90;;;9.80;99.90;;;;;;4937389;29;20269;-86
2022/10/05 00:58:19;;;;;;;628.67;166.87;;;9.80;99.90;;;;;;4937709;29;20193;-84
2022/10/05 01:00:53;;;;;;;631.07;167.97;;;9.70;99.90;;;;;;4937722;29;20179;-85
2022/10/05 01:03:29;;;;;;;642.03;171.33;;;9.70;99.90;;;;;;4933934;29;20187;-85
2022/10/05 01:06:07;;;;;;;637.53;172.60;;;9.70;99.90;;;;;;4935375;29;20193;-87
2022/10/05 01:08:48;;;;;;;639.57;175.07;;;9.60;99.90;;;;;;4937576;29;20190;-85
2022/10/05 01:11:22;;;;;;;639.77;170.30;;;9.60;99.90;;;;;;4937130;29;20645;-85
2022/10/05 01:14:03;;;;;;;642.10;174.83;;;9.60;99.90;;;;;;4937723;29;20203;-85
2022/10/05 01:16:40;;;;;;;639.13;168.03;;;9.50;99.90;;;;;;4936842;29;20229;-85
2022/10/05 01:19:19;;;;;;;638.30;172.47;;;9.50;99.90;;;;;;4937347;29;20223;-86
2022/10/05 01:21:52;;;;;;;637.87;170.43;;;9.60;1.00;;;;;;4937446;29;20191;-85
2022/10/05 01:24:48;;;;;;;643.67;173.77;;;9.50;1.00;;;;;;4936832;29;20191;-86
2022/10/05 01:27:42;;;;;;;638.97;169.93;;;9.50;1.00;;;;;;4937145;29;20260;-85
2022/10/05 01:30:13;;;;;;;631.80;167.37;;;9.60;1.00;;;;;;4936740;29;20184;-85
2022/10/05 01:32:45;;;;;;;637.17;170.60;;;9.60;1.00;;;;;;4936841;29;20268;-86
2022/10/05 01:35:25;;;;;;;634.77;171.27;;;9.60;1.00;;;;;;4936492;29;20211;-85
2022/10/05 01:38:02;;;;;;;629.37;170.00;;;9.60;99.90;;;;;;4936776;29;20185;-86
2022/10/05 01:40:38;;;;;;;632.47;167.03;;;9.60;99.90;;;;;;4936634;29;20245;-86
2022/10/05 01:43:14;;;;;;;628.73;169.90;;;9.70;99.90;;;;;;4932396;29;20537;-85
2022/10/05 01:45:53;;;;;;;622.50;164.17;;;9.80;1.00;;;;;;4925956;29;20636;-86
2022/10/05 01:48:31;;;;;;;624.23;163.70;;;9.80;1.00;;;;;;4936854;29;20186;-85
2022/10/05 01:51:08;;;;;;;631.53;167.17;;;9.80;1.00;;;;;;4936261;29;20609;-84
2022/10/05 01:53:49;;;;;;;636.00;171.80;;;9.80;99.90;;;;;;4936954;29;20189;-85
2022/10/05 01:56:22;;;;;;;630.00;168.87;;;9.80;99.90;;;;;;4936329;29;20632;-86
2022/10/05 01:58:55;;;;;;;629.70;170.60;;;9.80;1.00;;;;;;4936001;29;20594;-87
2022/10/05 02:01:28;;;;;;;629.87;170.47;;;9.80;99.90;;;;;;4936429;29;20185;-85
2022/10/05 02:04:03;;;;;;;628.17;169.97;;;9.80;99.90;;;;;;4930677;29;20249;-86
2022/10/05 02:06:34;;;;;;;631.67;169.67;;;9.70;99.90;;;;;;4936316;29;20204;-86
2022/10/05 02:09:08;;;;;;;629.97;169.57;;;9.70;99.90;;;;;;4935895;29;20216;-86
2022/10/05 02:11:38;;;;;;;634.93;160.47;;;9.70;1.00;;;;;;4936401;29;20196;-86
2022/10/05 02:14:11;;;;;;;632.27;168.43;;;9.70;1.00;;;;;;4935899;29;20203;-86
2022/10/05 02:16:41;;;;;;;639.40;172.90;;;9.70;1.00;;;;;;4936080;29;20687;-85
2022/10/05 02:19:13;;;;;;;637.97;173.23;;;9.60;99.90;;;;;;4936226;29;20210;-84
2022/10/05 02:21:42;;;;;;;628.97;160.57;;;9.60;99.90;;;;;;4936208;29;20231;-86
2022/10/05 02:24:13;;;;;;;630.63;170.50;;;9.60;99.90;;;;;;4919427;29;20256;-86
2022/10/05 02:26:41;;;;;;;633.20;167.90;;;9.50;99.90;;;;;;4925321;29;20196;-86
2022/10/05 02:29:12;;;;;;;629.33;167.60;;;9.50;99.90;;;;;;4935978;29;20243;-85
2022/10/05 02:31:45;;;;;;;626.30;165.17;;;9.50;99.90;;;;;;4936040;29;20181;-86
2022/10/05 02:34:23;;;;;;;624.77;164.83;;;9.40;99.90;;;;;;4935539;29;20678;-85
2022/10/05 02:36:56;;;;;;;623.37;159.03;;;9.50;99.90;;;;;;4935791;29;20627;-86
2022/10/05 02:39:35;;;;;;;622.23;163.53;;;9.40;99.90;;;;;;4935594;29;20216;-86
2022/10/05 02:42:13;;;;;;;620.37;162.30;;;9.40;1.00;;;;;;4935482;29;20265;-86
2022/10/05 02:44:49;;;;;;;621.10;159.17;;;9.40;1.00;;;;;;4935857;29;20240;-86
2022/10/05 02:47:23;;;;;;;624.30;162.70;;;9.40;1.00;;;;;;4935549;29;20202;-85
2022/10/05 02:49:57;;;;;;;636.83;168.60;;;9.30;1.00;;;;;;4935436;29;20186;-85
2022/10/05 02:52:32;;;;;;;637.57;165.47;;;9.30;1.00;;;;;;4935262;29;20187;-85
2022/10/05 02:55:08;;;;;;;633.20;166.60;;;9.30;97.50;;;;;;4935088;29;20187;-86
2022/10/05 02:57:40;;;;;;;632.03;164.93;;;9.30;1.00;;;;;;4935526;29;20225;-85
2022/10/05 03:00:12;;;;;;;633.23;163.50;;;9.30;1.00;;;;;;4935408;29;20261;-84
2022/10/05 03:02:44;;;;;;;633.93;166.87;;;9.20;1.00;;;;;;4934064;29;20181;-84
2022/10/05 03:05:20;;;;;;;638.17;166.23;;;9.20;1.00;;;;;;4935038;29;20240;-85
2022/10/05 03:07:55;;;;;;;640.37;162.70;;;9.20;1.00;;;;;;4935262;29;20246;-85
2022/10/05 03:10:29;;;;;;;641.43;165.63;;;9.10;1.00;;;;;;4933908;29;20702;-86
2022/10/05 03:13:03;;;;;;;648.77;170.07;;;9.10;99.90;;;;;;4931843;29;20189;-85
2022/10/05 03:15:53;;;;;;;633.93;162.93;;;9.10;79.40;;;;;;4934379;29;20192;-85
2022/10/05 03:18:29;;;;;;;633.60;161.27;;;9.10;1.00;;;;;;4934539;29;20254;-85
2022/10/05 03:21:07;;;;;;;637.80;166.97;;;9.10;88.10;;;;;;4934750;29;20280;-85
2022/10/05 03:23:47;;;;;;;632.83;164.57;;;9.10;99.90;;;;;;4951993;29;20708;-85
2022/10/05 03:26:29;;;;;;;631.07;162.40;;;9.10;99.90;;;;;;4945533;28;20185;-85
2022/10/05 03:29:03;;;;;;;631.50;162.70;;;9.00;47.80;;;;;;4934779;29;20192;-85
2022/10/05 03:31:39;;;;;;;630.17;157.10;;;9.00;99.90;;;;;;4934547;29;20243;-85
2022/10/05 03:34:15;;;;;;;627.97;160.00;;;9.00;99.90;;;;;;4935311;29;20602;-85
2022/10/05 03:36:47;;;;;;;622.53;157.43;;;9.00;60.00;;;;;;4935238;29;20732;-85
2022/10/05 03:39:19;;;;;;;624.60;157.10;;;9.00;16.60;;;;;;4934204;29;20579;-85
2022/10/05 03:41:51;;;;;;;622.83;155.90;;;8.90;1.00;;;;;;4934735;29;20539;-85
2022/10/05 03:44:32;;;;;;;623.77;153.40;;;8.90;99.90;;;;;;4935056;29;20230;-85
2022/10/05 03:47:11;;;;;;;616.97;154.27;;;8.90;99.90;;;;;;4934603;29;20191;-85
2022/10/05 03:49:52;;;;;;;620.37;156.70;;;8.90;1.00;;;;;;4926254;29;20244;-84
2022/10/05 03:52:26;;;;;;;621.10;156.20;;;8.80;99.90;;;;;;4931535;29;20210;-85
2022/10/05 03:55:00;;;;;;;628.87;161.03;;;8.90;1.00;;;;;;4934758;29;20603;-85
2022/10/05 03:57:31;;;;;;;631.90;162.90;;;8.80;1.00;;;;;;4934931;29;20269;-84
2022/10/05 04:00:04;;;;;;;627.87;159.73;;;8.80;1.00;;;;;;4917133;29;20564;-85
2022/10/05 04:02:37;;;;;;;627.53;165.30;;;8.80;99.90;;;;;;4934260;29;20212;-85
2022/10/05 04:05:14;;;;;;;620.63;155.27;;;8.80;99.90;;;;;;4934940;29;20185;-85
2022/10/05 04:07:45;;;;;;;626.70;163.00;;;8.90;1.00;;;;;;4934152;29;20647;-85
2022/10/05 04:10:19;;;;;;;627.50;161.23;;;8.90;1.00;;;;;;4934655;29;20180;-84
2022/10/05 04:12:51;;;;;;;631.80;155.90;;;8.90;1.00;;;;;;4934469;29;20186;-86
2022/10/05 04:15:27;;;;;;;632.70;159.73;;;8.90;1.00;;;;;;4934835;29;20189;-84
2022/10/05 04:18:00;;;;;;;635.37;162.30;;;8.90;1.00;;;;;;4933480;29;20205;-84
2022/10/05 04:20:34;;;;;;;632.43;161.50;;;8.90;1.00;;;;;;4932486;29;20776;-84
2022/10/05 04:23:07;;;;;;;628.83;157.60;;;8.90;1.00;;;;;;4934034;29;20536;-85
2022/10/05 04:25:41;;;;;;;630.50;160.13;;;8.90;99.90;;;;;;4934802;29;20254;-85
2022/10/05 04:28:15;;;;;;;632.10;166.27;;;8.90;1.00;;;;;;4934545;29;20190;-84
2022/10/05 04:30:46;;;;;;;618.57;150.07;;;8.80;1.00;;;;;;4934964;29;20253;-84
2022/10/05 04:33:15;;;;;;;622.80;156.77;;;8.80;99.90;;;;;;4934946;29;20242;-84
2022/10/05 04:36:10;;;;;;;632.00;166.50;;;8.80;1.00;;;;;;4934501;29;20256;-84
2022/10/05 04:38:47;;;;;;;624.40;154.27;;;8.70;99.90;;;;;;4937282;29;20201;-84
2022/10/05 04:41:29;;;;;;;626.10;157.47;;;8.80;1.00;;;;;;4938469;29;20195;-84
2022/10/05 04:44:10;;;;;;;621.50;154.40;;;8.70;1.00;;;;;;4938161;29;20195;-84
2022/10/05 04:46:52;;;;;;;618.70;156.17;;;8.70;1.00;;;;;;4936983;29;20653;-84
2022/10/05 04:49:34;;;;;;;607.97;146.73;;;8.70;1.00;;;;;;4938119;29;20182;-84
2022/10/05 04:52:10;;;;;;;610.10;147.43;;;8.70;1.00;;;;;;4937806;29;20179;-84
2022/10/05 04:54:51;;;;;;;614.07;159.47;;;8.70;1.00;;;;;;4937658;29;20189;-85
2022/10/05 04:57:23;;;;;;;611.90;151.50;;;8.70;1.00;;;;;;4937496;29;20205;-83
2022/10/05 05:00:09;;;;;;;608.23;150.10;;;8.70;99.90;;;;;;4937286;29;20229;-83
2022/10/05 05:03:01;;;;;;;616.03;151.40;;;8.70;1.00;;;;;;4937964;29;20616;-83
2022/10/05 05:05:41;;;;;;;618.40;155.20;;;8.70;53.40;;;;;;4937652;29;20192;-84
2022/10/05 05:08:22;;;;;;;612.97;150.87;;;8.70;99.90;;;;;;4936806;29;20610;-83
2022/10/05 05:10:55;;;;;;;622.57;159.07;;;8.80;1.00;;;;;;4938485;29;20239;-83
2022/10/05 05:13:39;;;;;;;614.90;155.83;;;8.80;1.00;;;;;;4938084;29;20261;-85
2022/10/05 05:16:11;;;;;;;620.40;155.70;;;8.80;1.00;;;;;;4937351;29;20678;-83
2022/10/05 05:18:52;;;;;;;620.50;157.77;;;8.80;1.00;;;;;;4937441;29;20709;-86
2022/10/05 05:21:46;;;;;;;614.60;157.13;;;8.80;99.90;;;;;;4938648;29;20262;-85
2022/10/05 05:24:21;;;;;;;617.53;158.77;;;8.80;99.90;;;;;;4948473;29;20213;-85
2022/10/05 05:27:01;;;;;;;626.43;158.13;;;8.80;99.90;;;;;;4937235;29;20189;-86
2022/10/05 05:29:37;;;;;;;618.87;158.20;;;8.80;1.00;;;;;;4937986;29;20179;-86
2022/10/05 05:32:13;;;;;;;620.97;160.07;;;8.90;1.00;;;;;;4937194;29;20217;-90
2022/10/05 05:35:01;;;;;;;615.63;158.07;;;8.90;53.30;;;;;;4937501;29;20183;-85
2022/10/05 05:37:34;;;;;;;677.13;198.73;;;8.90;1.00;;;;;;4938561;29;20313;-86
2022/10/05 05:40:06;;;;;;;625.37;166.20;;;8.90;1.00;;;;;;4938836;29;20244;-83
2022/10/05 05:42:42;;;;;;;611.10;157.80;;;9.00;99.90;;;;;;4937329;29;20192;-85
2022/10/05 05:45:35;;;;;;;622.37;158.13;;;9.00;99.90;;;;;;4938305;29;20240;-86
2022/10/05 05:48:10;;;;;;;623.93;166.97;;;9.00;1.00;;;;;;4936385;29;20637;-83
2022/10/05 05:50:46;;;;;;;615.47;164.80;;;9.00;1.00;;;;;;4936793;29;20193;-83
2022/10/05 05:53:20;;;;;;;620.07;164.40;;;9.10;1.00;;;;;;4938458;29;20259;-85
2022/10/05 05:56:01;;;;;;;611.47;156.60;;;9.10;1.00;;;;;;4937522;29;20720;-84
2022/10/05 05:58:32;;;;;;;611.00;159.93;;;9.10;1.00;;;;;;4937066;29;20219;-84
2022/10/05 06:01:03;;;;;;;612.67;159.60;;;9.10;1.00;;;;;;4936770;29;20235;-86
2022/10/05 06:03:37;;;;;;;612.20;157.97;;;9.20;1.00;;;;;;4936943;29;20254;-85
2022/10/05 06:06:09;;;;;;;609.43;154.17;;;9.20;99.90;;;;;;4936613;29;20239;-86
2022/10/05 06:08:41;;;;;;;614.23;157.60;;;9.20;1.00;;;;;;4936793;29;20191;-84
2022/10/05 06:11:16;;;;;;;608.50;156.87;;;9.30;1.00;;;;;;4936600;29;20191;-84
2022/10/05 06:13:43;;;;;;;610.03;152.37;;;9.30;1.00;;;;;;4936567;29;20179;-84
2022/10/05 06:16:17;;;;;;;610.57;158.07;;;9.40;1.00;;;;;;4939555;29;20254;-86
2022/10/05 06:18:48;;;;;;;611.97;159.67;;;9.40;1.00;;;;;;4936036;29;20648;-85
2022/10/05 06:21:22;;;;;;;614.20;161.73;;;9.50;1.00;;;;;;4936338;29;20626;-85
2022/10/05 06:23:56;;;;;;;616.50;162.43;;;9.50;1.00;;;;;;4936254;29;20196;-86
2022/10/05 06:27:08;;;;;;;620.17;163.07;;;9.60;1.00;;;;;;4944507;29;20192;-88
2022/10/05 06:29:45;;;;;;;616.87;161.57;;;9.70;1.00;;;;;;4857448;29;20203;-83
2022/10/05 06:32:26;;;;;;;611.63;161.63;;;9.80;1.00;;;;;;4931138;29;20586;-84
2022/10/05 06:35:06;;;;;;;613.63;167.13;;;10.00;99.90;;;;;;4936487;29;20177;-86
2022/10/05 06:37:58;;;;;;;615.87;169.73;;;10.20;99.90;;;;;;4936083;29;20263;-86
2022/10/05 06:40:39;;;;;;;619.93;178.13;;;10.40;1.00;;;;;;4937456;29;20202;-86
2022/10/05 06:43:31;;;;;;;627.37;181.40;;;10.70;1.00;;;;;;4936052;29;20242;-86
2022/10/05 06:46:03;;;;;;;;;;;11.00;99.90;;;;;;4923701;29;20667;-87
2022/10/05 06:48:42;;;;;;;622.87;190.87;;;11.40;99.90;;;;;;4936716;29;20296;-86
2022/10/05 06:51:15;;;;;;;;;;;11.60;99.90;;;;;;4936229;29;20526;-86
2022/10/05 06:53:48;;;;;;;;;;;11.80;99.90;;;;;;4936305;29;20197;-87
2022/10/05 06:56:23;;;;;;;633.03;199.90;;;12.00;99.90;;;;;;4935937;29;20058;-87
2022/10/05 06:59:13;;;;;;;;;;;;;;;;;;;;;
2022/10/05 07:01:53;;;;;;;631.73;206.57;;;12.60;1.00;;;;;;4935483;29;20198;-86
2022/10/05 07:04:39;;;;;;;634.97;211.03;;;13.00;1.00;;;;;;4941103;29;20251;-87
2022/10/05 07:07:17;;;;;;;650.23;226.73;;;13.60;1.00;;;;;;4936671;29;20186;-89
2022/10/05 07:09:50;;;;;;;;;;;14.00;56.70;;;;;;4935928;29;20237;-89
2022/10/05 07:12:29;;;;;;;;;;;14.30;1.00;;;;;;4936166;29;19923;-86
2022/10/05 07:15:12;;;;;;;658.60;257.00;;;14.60;1.00;;;;;;4937400;29;20418;-89
2022/10/05 07:18:28;;;;;;;645.60;255.20;;;15.10;61.70;;;;;;4951264;29;20113;-90
2022/10/05 07:21:00;;;;;;;;;;;15.80;99.90;;;;;;4848585;29;20018;-90
2022/10/05 07:23:35;;;;;;;;;;;16.30;5.90;;;;;;4922487;29;19969;-89
2022/10/05 07:26:04;;;;;;;;;;;16.50;35.70;;;;;;4939590;29;19926;-89
2022/10/05 07:28:40;;;;;;;;;;;16.60;1.00;;;;;;4936558;29;19927;-89
2022/10/05 07:31:13;;;;;;;663.53;310.27;;;17.00;1.00;;;;;;4935852;29;20056;-91
2022/10/05 07:33:47;;;;;;;681.50;346.10;;;17.40;1.00;;;;;;4939472;29;20258;-93
2022/10/05 07:39:19;;;;;;;672.70;336.57;;;18.10;99.90;;;;;;4937631;29;20455;-92
2022/10/05 07:41:53;;;;;;;665.33;338.17;;;18.50;99.90;;;;;;4936648;29;20205;-94
2022/10/05 07:44:30;;;;;;;661.37;350.47;;;18.90;99.90;;;;;;4939826;28;20200;-93
2022/10/05 07:47:04;;;;;;;655.43;351.10;;;19.20;1.00;;;;;;4941972;29;20212;-90
2022/10/05 07:52:24;;;;;;;660.10;356.97;;;19.10;1.00;;;;;;4934529;29;20205;-93
2022/10/05 07:55:01;;;;;;;651.93;372.33;;;19.20;1.00;;;;;;4941809;29;20193;-93
2022/10/05 07:57:37;;;;;;;656.23;357.50;;;18.90;1.00;;;;;;4917067;29;20228;-91
2022/10/05 08:00:12;;;;;;;660.83;362.03;;;18.40;1.00;;;;;;4917085;29;20632;-91
2022/10/05 08:02:48;;;;;;;656.70;355.83;;;17.90;1.00;;;;;;4919207;29;20205;-92
2022/10/05 08:05:23;;;;;;;650.53;343.20;;;17.50;1.00;;;;;;4917090;29;20200;-91
2022/10/05 08:07:55;;;;;;;651.40;334.40;;;17.10;1.00;;;;;;4917601;29;20197;-93
2022/10/05 08:10:30;;;;;;;643.93;326.50;;;16.70;1.00;;;;;;4917421;29;20296;-92
2022/10/05 08:13:07;;;;;;;655.43;336.33;;;16.50;1.00;;;;;;4919690;29;20211;-93
2022/10/05 08:15:41;;;;;;;644.20;314.50;;;16.30;1.00;;;;;;4920899;29;20208;-94
2022/10/05 08:18:19;;;;;;;642.13;304.67;;;16.10;1.00;;;;;;4920466;29;20225;-93
2022/10/05 08:20:49;;;;;;;637.30;297.07;;;15.90;1.00;;;;;;4920699;29;20237;-92
2022/10/05 08:23:23;;;;;;;655.37;307.93;;;15.80;1.00;;;;;;4922630;29;20597;-92
2022/10/05 08:26:01;;;;;;;643.43;293.27;;;15.70;1.00;;;;;;4924365;29;20205;-91
2022/10/05 08:28:34;;;;;;;636.17;285.13;;;15.70;1.00;;;;;;4922387;29;20708;-92
2022/10/05 08:31:36;;;;;;;632.00;279.37;;;15.60;1.00;;;;;;4920517;29;20221;-91
2022/10/05 08:34:16;;;;;;;630.50;268.70;;;15.60;1.00;;;;;;4920275;29;20252;-94
2022/10/05 08:36:49;;;;;;;;;;;15.60;1.00;;;;;;4922427;29;20393;-92
2022/10/05 08:39:18;;;;;;;;;;;15.60;1.00;;;;;;4920678;29;20064;-92
2022/10/05 08:42:23;;;;;;;631.80;280.60;;;15.60;1.00;;;;;;4922964;29;20155;-95
2022/10/05 08:45:01;;;;;;;;;;;15.60;1.00;;;;;;4916063;29;20286;-92
2022/10/05 08:47:37;;;;;;;;;;;15.50;1.00;;;;;;4921373;29;20343;-92
2022/10/05 08:50:18;;;;;;;;;;;15.50;1.00;;;;;;4920453;29;19945;-93
2022/10/05 08:53:15;;;;;;;640.30;308.37;;;15.60;1.00;;;;;;4922446;29;20393;-91
2022/10/05 08:55:54;;;;;;;634.80;316.93;;;16.20;1.00;;;;;;4915538;29;20715;-91
2022/10/05 08:58:57;;;;;;;628.93;295.30;;;16.50;1.00;;;;;;4919856;29;20743;-90
2022/10/05 09:01:34;;;;;;;672.37;425.00;;;16.80;1.00;;;;;;4920382;29;20553;-93
2022/10/05 09:04:28;;;;;;;630.97;295.47;;;17.00;1.00;;;;;;4920058;29;20197;-92
2022/10/05 09:07:10;;;;;;;636.07;315.27;;;17.00;1.00;;;;;;4931414;29;20197;-91
2022/10/05 09:10:13;;;;;;;643.37;309.40;;;17.10;1.00;;;;;;4919876;29;20568;-92
2022/10/05 09:13:09;;;;;;;639.90;315.90;;;17.50;1.00;;;;;;4922232;29;20288;-92
2022/10/05 09:16:10;;;;;;;645.47;319.70;;;17.80;1.00;;;;;;4921949;29;20209;-93
2022/10/05 09:19:07;;;;;;;646.80;326.20;;;18.50;1.00;;;;;;4922072;29;20227;-91
2022/10/05 09:22:03;;;;;;;676.70;365.30;;;19.10;1.00;;;;;;4927294;29;20028;-93
2022/10/05 09:25:03;;;;;;;659.80;356.77;;;19.20;1.00;;;;;;4922581;29;20202;-96
2022/10/05 09:56:09;;;;;;;645.67;358.80;;;19.30;1.00;;;;;;4669772;30;20311;-93
2022/10/05 09:59:17;;;;;;;649.30;358.63;;;19.10;1.00;;;;;;4785348;29;20233;-94
2022/10/05 10:02:22;;;;;;;648.57;355.40;;;19.00;1.00;;;;;;4862910;29;20282;-93
2022/10/05 10:08:42;;;;;;;660.83;365.13;;;18.60;1.00;;;;;;4772644;29;20209;-93
2022/10/05 10:11:22;;;;;;;642.23;341.53;;;18.50;1.00;;;;;;4881324;29;20739;-91
2022/10/05 10:14:14;;;;;;;643.90;341.43;;;18.50;1.00;;;;;;4880278;29;20730;-93
2022/10/05 10:17:12;;;;;;;637.23;334.97;;;18.50;1.00;;;;;;4879768;29;20199;-93
2022/10/05 10:20:02;;;;;;;638.27;336.53;;;18.50;1.00;;;;;;4879480;29;20250;-92
2022/10/05 10:23:11;;;;;;;633.73;335.20;;;18.40;1.00;;;;;;4888382;29;20286;-92
2022/10/05 10:26:04;;;;;;;635.50;333.80;;;18.40;1.00;;;;;;4894771;29;20205;-92
2022/10/05 10:28:59;;;;;;;645.97;337.23;;;18.40;1.00;;;;;;4916639;29;20206;-92
2022/10/05 10:32:04;;;;;;;640.03;335.30;;;18.60;1.00;;;;;;4925448;29;20292;-94
2022/10/05 10:35:00;;;;;;;635.33;333.87;;;18.60;1.00;;;;;;4886463;29;20208;-92
2022/10/05 10:37:41;;;;;;;639.70;346.27;;;18.70;1.00;;;;;;4914392;29;20264;-93
2022/10/05 10:40:33;;;;;;;643.57;347.57;;;18.80;1.00;;;;;;4926056;29;20265;-93
2022/10/05 10:43:23;;;;;;;663.07;356.37;;;18.80;1.00;;;;;;4926188;29;20206;-92
2022/10/05 10:46:00;;;;;;;652.73;356.27;;;18.90;1.00;;;;;;4925015;29;20205;-90
2022/10/05 10:48:51;;;;;;;652.97;352.27;;;18.90;1.00;;;;;;4925921;29;20268;-92
2022/10/05 10:51:40;;;;;;;639.53;337.40;;;18.90;1.00;;;;;;4926291;29;20637;-93
2022/10/05 10:54:42;;;;;;;645.33;344.93;;;18.80;1.00;;;;;;4924785;29;20641;-93
2022/10/05 10:57:14;;;;;;;638.53;336.10;;;18.80;1.00;;;;;;4925408;29;20199;-93
2022/10/05 11:00:19;;;;;;;641.50;342.17;;;18.70;1.00;;;;;;4923921;29;20287;-93
2022/10/05 11:03:26;;;;;;;634.90;332.70;;;18.60;1.00;;;;;;4915537;29;20206;-92
2022/10/05 11:06:25;;;;;;;633.17;330.23;;;18.50;1.00;;;;;;4924569;29;20193;-94
2022/10/05 11:09:28;;;;;;;639.77;332.30;;;18.50;1.00;;;;;;4910948;29;20208;-93
2022/10/05 11:12:30;;;;;;;632.43;321.27;;;18.50;1.00;;;;;;4923758;29;20213;-92
2022/10/05 11:15:18;;;;;;;627.03;318.70;;;18.40;1.00;;;;;;4912313;29;20735;-93
2022/10/05 11:18:11;;;;;;;631.93;325.00;;;18.40;1.00;;;;;;4919825;29;20193;-93
2022/10/05 11:21:17;;;;;;;625.97;316.93;;;18.30;1.00;;;;;;4919702;29;20230;-93
2022/10/05 11:24:23;;;;;;;631.90;323.83;;;18.30;1.00;;;;;;4920319;29;20268;-93
2022/10/05 11:27:11;;;;;;;633.97;320.13;;;18.20;1.00;;;;;;4910780;29;20232;-92
2022/10/05 11:30:03;;;;;;;634.03;319.93;;;18.20;1.00;;;;;;4919904;29;20265;-93
2022/10/05 11:33:09;;;;;;;625.90;314.20;;;18.20;1.00;;;;;;4920321;29;20419;-92
2022/10/05 11:35:58;;;;;;;627.63;315.30;;;18.20;1.00;;;;;;4918810;29;20648;-93
2022/10/05 11:38:51;;;;;;;628.33;322.63;;;18.20;1.00;;;;;;4919089;29;20261;-93
2022/10/05 11:41:47;;;;;;;629.13;315.70;;;18.20;1.00;;;;;;4918497;29;20237;-93
2022/10/05 11:44:52;;;;;;;626.47;318.20;;;18.20;1.00;;;;;;4916909;29;20233;-93
2022/10/05 11:47:26;;;;;;;625.70;313.63;;;18.10;1.00;;;;;;4917098;29;20227;-92
2022/10/05 11:50:05;;;;;;;630.90;321.73;;;18.00;1.00;;;;;;4917750;29;20204;-92
2022/10/05 11:52:39;;;;;;;629.87;322.10;;;17.90;1.00;;;;;;4917497;29;20285;-93
2022/10/05 11:55:18;;;;;;;635.80;344.23;;;17.90;1.00;;;;;;4918041;29;20209;-94
2022/10/05 11:57:56;;;;;;;634.23;329.40;;;17.90;1.00;;;;;;4917667;29;20201;-93
2022/10/05 12:00:25;;;;;;;649.97;345.47;;;17.90;1.00;;;;;;4917518;29;20636;-92
2022/10/05 12:03:15;;;;;;;635.33;322.70;;;18.00;1.00;;;;;;4917486;29;20224;-93
2022/10/05 12:05:57;;;;;;;631.63;324.93;;;18.10;1.00;;;;;;4917593;29;20288;-93
2022/10/05 12:08:33;;;;;;;628.53;328.17;;;18.20;1.00;;;;;;4917700;29;20209;-92
2022/10/05 12:11:13;;;;;;;634.27;340.33;;;18.40;1.00;;;;;;4918131;29;20201;-92
2022/10/05 12:13:47;;;;;;;634.40;331.83;;;18.50;1.00;;;;;;4918009;29;20204;-92
2022/10/05 12:16:21;;;;;;;637.67;326.20;;;18.70;1.00;;;;;;4917608;29;20201;-93
2022/10/05 12:19:00;;;;;;;636.87;332.57;;;18.80;1.00;;;;;;4917474;29;20240;-92
2022/10/05 12:21:39;;;;;;;639.60;339.07;;;18.90;1.00;;;;;;4917594;29;20237;-92
2022/10/05 12:24:13;;;;;;;658.67;357.00;;;19.00;1.00;;;;;;4918005;29;20698;-94
2022/10/05 12:26:47;;;;;;;650.83;343.97;;;19.00;1.00;;;;;;4917818;29;20204;-94
2022/10/05 12:29:21;;;;;;;644.97;344.57;;;19.00;1.00;;;;;;4917252;29;20211;-94
2022/10/05 12:31:57;;;;;;;642.53;345.47;;;19.00;1.00;;;;;;4918114;29;20289;-92
2022/10/05 12:34:39;;;;;;;647.27;360.97;;;19.00;1.00;;;;;;4917590;29;20624;-93
2022/10/05 12:37:28;;;;;;;635.63;343.40;;;19.00;1.00;;;;;;4917701;29;20213;-92
2022/10/05 12:40:02;;;;;;;642.63;352.40;;;19.10;1.00;;;;;;4917354;29;20225;-94
2022/10/05 12:42:36;;;;;;;636.97;351.63;;;19.10;1.00;;;;;;4917893;29;20630;-93
2022/10/05 12:45:21;;;;;;;637.23;357.30;;;19.20;1.00;;;;;;4919927;29;20202;-93
2022/10/05 12:48:07;;;;;;;652.43;390.13;;;19.20;1.00;;;;;;4917356;29;20197;-93
2022/10/05 12:50:42;;;;;;;671.03;445.37;;;19.20;1.00;;;;;;4923209;29;20229;-94
2022/10/05 12:53:24;;;;;;;635.50;352.37;;;19.20;1.00;;;;;;4917987;29;20595;-94
2022/10/05 12:56:01;;;;;;;641.33;351.37;;;19.20;1.00;;;;;;4917408;29;20587;-94
2022/10/05 12:58:37;;;;;;;638.80;350.73;;;19.20;1.00;;;;;;4917748;29;20253;-94
2022/10/05 13:01:14;;;;;;;637.60;350.93;;;19.30;1.00;;;;;;4920963;29;20684;-93
2022/10/05 13:03:46;;;;;;;638.20;353.53;;;19.40;1.00;;;;;;4920927;29;20574;-94
2022/10/05 13:06:29;;;;;;;639.83;355.47;;;19.60;1.00;;;;;;4921758;29;20230;-94
2022/10/05 13:09:10;;;;;;;640.07;359.63;;;19.70;1.00;;;;;;4925783;29;20668;-95
2022/10/05 13:11:45;;;;;;;642.57;360.83;;;19.70;1.00;;;;;;4921644;29;20197;-91
2022/10/05 13:14:23;;;;;;;639.03;361.20;;;19.60;1.00;;;;;;4921312;29;20208;-92
2022/10/05 13:16:58;;;;;;;641.50;362.43;;;19.50;1.00;;;;;;4926055;29;20212;-92
2022/10/05 13:19:38;;;;;;;640.70;366.63;;;19.50;1.00;;;;;;4920231;29;20232;-94
2022/10/05 13:22:18;;;;;;;639.23;366.83;;;19.50;1.00;;;;;;4920580;29;20206;-94
2022/10/05 13:24:58;;;;;;;643.00;381.67;;;19.50;1.00;;;;;;4921390;29;20201;-92
2022/10/05 13:27:30;;;;;;;645.40;370.37;;;19.40;1.00;;;;;;4920841;29;20201;-92
2022/10/05 13:30:02;;;;;;;649.37;397.47;;;19.40;1.00;;;;;;4920678;29;20629;-93
2022/10/05 13:32:35;;;;;;;652.27;402.27;;;19.40;1.00;;;;;;4921331;29;20252;-93
2022/10/05 13:35:20;;;;;;;643.00;379.97;;;19.30;1.00;;;;;;4921264;29;20212;-92
2022/10/05 13:37:55;;;;;;;654.53;396.73;;;19.40;1.00;;;;;;4921335;29;20205;-91
2022/10/05 13:40:34;;;;;;;653.23;401.07;;;19.40;1.00;;;;;;4920878;29;20571;-92
2022/10/05 13:43:06;;;;;;;657.03;410.33;;;19.40;1.00;;;;;;4927343;29;20283;-92
2022/10/05 13:45:44;;;;;;;642.70;367.83;;;19.40;1.00;;;;;;4920564;29;20218;-93
2022/10/05 13:48:23;;;;;;;644.67;381.90;;;19.40;1.00;;;;;;4920994;29;20209;-93
2022/10/05 13:51:02;;;;;;;647.73;396.00;;;19.40;1.00;;;;;;4920304;29;20216;-92
2022/10/05 13:53:41;;;;;;;647.60;385.53;;;19.30;1.00;;;;;;4922209;29;20256;-93
2022/10/05 13:56:16;;;;;;;657.80;423.30;;;19.20;1.00;;;;;;4922236;29;20224;-93
2022/10/05 13:58:51;;;;;;;671.03;472.67;;;19.10;1.00;;;;;;4923958;29;20225;-94
2022/10/05 14:01:29;;;;;;;684.33;481.73;;;19.00;1.00;;;;;;4939703;29;20591;-93
2022/10/05 14:04:14;;;;;;;702.97;542.07;;;19.00;1.00;;;;;;4940876;29;20207;-94
2022/10/05 14:06:42;;;;;;;727.60;592.50;;;19.00;1.00;;;;;;4940540;29;20201;-94